Aérodrome :
LOGIN :

S'inscrire | Disclaimer

   EN    FR    IT 

 










Légende :    VFR   VFR Marginal   IFR   IFR Intensif   IFR Très Intensif
Visi : 
Plafond : 
>= 8 km
>= 3000ft
5 à 8 km
1000 à 3000 ft
1500m à 5 km
500 à 1000 ft
800 à 1500m
200 à 500 ft
< 800m
< 200 ft
Symboles :   Orages  Brouillard  Fortes neiges  Fortes précipitations  Vent > 20 kt
SIGMETs :   Divers  Orages  Givrage  Turbulence  Onde Orograph.  Cendres Volcan.







- Altitude de l'aérodrome : 194 ft


EBCV - Chièvres

DERNIER METAR :
  • 230809Z AUTO 24009KT 9999 BKN019/// 20/14 Q1017 WHT

METARs EXPIRÉS :
  • 230755Z AUTO 25009KT 9999 FEW019/// BKN033/// 19/13 Q1017 BLU
  • 230725Z AUTO 24009KT 9999 BKN036/// 18/13 Q1017 BLU
  • 230655Z AUTO 23009KT 9999 BKN036/// 17/14 Q1017 BLU
  • 230625Z AUTO 23009KT 9999 FEW009/// OVC034/// 17/14 Q1017 BLU
  • 230619Z AUTO 23008KT 9999 FEW008/// OVC034/// 16/14 Q1017 BLU
  • 230555Z AUTO 22008KT 9999 SCT008/// OVC033/// 16/13 Q1017 GRN
  • 230525Z AUTO 23008KT 9999 SCT008/// OVC034/// 15/13 Q1016 GRN

TAF TAF EBCV
Valide du 23 à 07h jusqu'au 23 à 16h UTC


230541Z 2307/2316 24010KT 9999 BKN030
BECMG 2310/2312 26015KT SCT035 BY EBWM
Pas de NOTAMs connus pour ce terrain.



MET'MAP, la Météo Aéronautique d'un coup d'oeil ! - Copyright ORBIFLY Décembre 2007 - Disclaimer

ORBIFLY MET'MAP TEAM :

Programmation & Développement : Alexandra Zaïnal
Conception & Développement : Baudouin d'Aumeries
Co-Programmation & Développement : Marc-Olivier Méhu
Soutien technique & logistique : Manuel Goepfert

Contact : metmap@orbifly.com




SOURCES & CREDITS :

   NOAA